createdAt,value
2018-05-17T00:00:07.712Z,74564.14
2018-05-17T00:02:39.167Z,74585.39
2018-05-17T00:05:10.816Z,74537.83
2018-05-17T00:07:42.308Z,74541.88
2018-05-17T00:10:13.297Z,74540.87
2018-05-17T00:12:44.843Z,74550.98
2018-05-17T00:15:15.891Z,74562.12
2018-05-17T00:17:47.468Z,74571.22
2018-05-17T00:20:18.936Z,74545.93
2018-05-17T00:22:50.509Z,74563.13
2018-05-17T00:25:22.127Z,74523.66
2018-05-17T00:27:53.800Z,74556.05
2018-05-17T00:30:24.768Z,74584.38
2018-05-17T00:32:56.733Z,74552.00
2018-05-17T00:35:28.547Z,74577.30
2018-05-17T00:37:59.695Z,74563.13
2018-05-17T00:40:30.952Z,74610.69
2018-05-17T00:43:02.159Z,74597.53
2018-05-17T00:45:33.547Z,74590.45
2018-05-17T00:48:05.073Z,74592.47
2018-05-17T00:50:36.179Z,74610.69
2018-05-17T00:53:15.899Z,74586.41
2018-05-17T00:55:47.167Z,74601.58
2018-05-17T00:58:18.828Z,74631.94
2018-05-17T01:00:50.381Z,74635.98
2018-05-17T01:03:22.307Z,74646.11
2018-05-17T01:05:53.545Z,74639.02
2018-05-17T01:08:24.878Z,74645.09
2018-05-17T01:10:55.980Z,74643.08
2018-05-17T01:13:27.193Z,74654.20
2018-05-17T01:15:58.735Z,74653.19
2018-05-17T01:18:29.944Z,74678.48
2018-05-17T01:21:01.758Z,74694.68
2018-05-17T01:23:33.459Z,74689.63
2018-05-17T01:26:04.683Z,74660.27
2018-05-17T01:28:36.064Z,74635.98
2018-05-17T01:31:07.255Z,74695.69
2018-05-17T01:33:38.377Z,74685.58
2018-05-17T01:36:09.697Z,74717.95
2018-05-17T01:38:40.831Z,74720.99
2018-05-17T01:41:12.387Z,74740.22
2018-05-17T01:43:44.231Z,74716.94
2018-05-17T01:46:15.888Z,74722.00
2018-05-17T01:48:47.254Z,74768.55
2018-05-17T01:51:19.546Z,74725.04
2018-05-17T01:53:51.152Z,74766.53
2018-05-17T01:56:22.200Z,74763.50
2018-05-17T01:58:54.512Z,74736.17
2018-05-17T02:01:25.556Z,74732.13
2018-05-17T02:03:56.923Z,74790.81
2018-05-17T02:06:28.133Z,74794.86
2018-05-17T02:08:59.884Z,74787.78
2018-05-17T02:11:31.134Z,74795.88
2018-05-17T02:14:02.452Z,74795.88
2018-05-17T02:16:33.567Z,74775.64
2018-05-17T02:19:04.814Z,74815.11
2018-05-17T02:21:35.819Z,74838.38
2018-05-17T02:24:07.490Z,74834.33
2018-05-17T02:26:38.428Z,74796.89
2018-05-17T02:29:10.251Z,74787.78
2018-05-17T02:31:41.396Z,74807.02
2018-05-17T02:34:13.118Z,74788.80
2018-05-17T02:36:44.402Z,74801.95
2018-05-17T02:39:15.781Z,74802.96
2018-05-17T02:41:46.783Z,74841.42
2018-05-17T02:44:18.487Z,74818.14
2018-05-17T02:46:49.479Z,74869.75
2018-05-17T02:49:20.959Z,74844.45
2018-05-17T02:51:52.007Z,74833.32
2018-05-17T02:54:23.673Z,74859.63
2018-05-17T02:56:55.264Z,74870.77
2018-05-17T02:59:26.730Z,74849.52
2018-05-17T03:01:57.696Z,74851.53
2018-05-17T03:04:29.188Z,74881.90
2018-05-17T03:07:00.597Z,74839.39
2018-05-17T03:09:31.888Z,74863.68
2018-05-17T03:12:03.819Z,74883.92
2018-05-17T03:14:34.855Z,74885.95
2018-05-17T03:17:06.667Z,74870.77
2018-05-17T03:19:38.357Z,74814.09
2018-05-17T03:22:09.376Z,74842.43
2018-05-17T03:24:41.024Z,74844.45
2018-05-17T03:27:12.333Z,74833.32
2018-05-17T03:29:43.691Z,74868.74
2018-05-17T03:32:14.911Z,74837.38
2018-05-17T03:34:46.615Z,74842.43
2018-05-17T03:37:17.710Z,74886.95
2018-05-17T03:39:49.507Z,74873.80
2018-05-17T03:42:20.838Z,74862.67
2018-05-17T03:44:52.580Z,74844.45
2018-05-17T03:47:24.212Z,74865.70
2018-05-17T03:49:55.350Z,74904.16
2018-05-17T03:52:27.111Z,74911.25
2018-05-17T03:54:58.202Z,74871.78
2018-05-17T03:57:29.142Z,74953.75
2018-05-17T04:00:00.379Z,74911.25
2018-05-17T04:02:41.320Z,74946.67
2018-05-17T04:05:56.491Z,74899.10
2018-05-17T04:08:28.083Z,74937.56
2018-05-17T04:10:59.963Z,74921.36
2018-05-17T04:13:31.798Z,74916.30
2018-05-17T04:16:03.421Z,74964.88
2018-05-17T04:18:35.014Z,74909.22
2018-05-17T04:21:07.107Z,74905.17
2018-05-17T04:23:38.419Z,74905.17
2018-05-17T04:26:10.940Z,74895.05
2018-05-17T04:28:42.456Z,74884.94
2018-05-17T04:31:14.224Z,74931.48
2018-05-17T04:33:49.082Z,74902.14
2018-05-17T04:36:24.110Z,74960.84
2018-05-17T04:38:55.895Z,74976.02
2018-05-17T04:41:27.748Z,74923.39
2018-05-17T04:44:00.210Z,74989.17
2018-05-17T04:46:31.169Z,74946.67
2018-05-17T04:49:02.524Z,74909.22
2018-05-17T04:51:33.487Z,74883.92
2018-05-17T04:54:04.860Z,74923.39
2018-05-17T04:56:36.757Z,74945.66
2018-05-17T04:59:07.754Z,74903.16
2018-05-17T05:01:38.814Z,74935.53
2018-05-17T05:04:10.099Z,74905.17
2018-05-17T05:06:41.132Z,74891.00
2018-05-17T05:09:12.590Z,74919.34
2018-05-17T05:11:44.377Z,74910.23
2018-05-17T05:14:15.371Z,74923.39
2018-05-17T05:16:47.521Z,74930.47
2018-05-17T05:19:18.871Z,74900.11
2018-05-17T05:21:54.851Z,74902.14
2018-05-17T05:24:26.164Z,74886.95
2018-05-17T05:26:57.626Z,74877.85
2018-05-17T05:29:28.867Z,74908.21
2018-05-17T05:32:00.801Z,74947.68
2018-05-17T05:34:32.279Z,74970.95
2018-05-17T05:37:03.650Z,74966.91
2018-05-17T05:39:35.731Z,75037.75
2018-05-17T05:42:06.790Z,74995.25
2018-05-17T05:44:38.083Z,74989.17
2018-05-17T05:47:09.144Z,74982.09
2018-05-17T05:49:40.167Z,74999.30
2018-05-17T05:52:11.610Z,75013.46
2018-05-17T05:54:42.587Z,75059.00
2018-05-17T05:57:13.526Z,75109.61
2018-05-17T05:59:45.952Z,75082.28
2018-05-17T06:02:17.951Z,75026.62
2018-05-17T06:04:50.558Z,74999.30
2018-05-17T06:07:22.451Z,75052.93
2018-05-17T06:09:53.589Z,75111.63
2018-05-17T06:12:25.568Z,75120.73
2018-05-17T06:14:56.643Z,75094.42
2018-05-17T06:17:28.253Z,75043.83
2018-05-17T06:20:00.336Z,75043.83
2018-05-17T06:22:31.978Z,75050.91
2018-05-17T06:25:03.309Z,75054.95
2018-05-17T06:27:34.347Z,75089.37
2018-05-17T06:30:05.416Z,75151.10
2018-05-17T06:32:37.243Z,75164.27
2018-05-17T06:35:08.502Z,75096.45
2018-05-17T06:37:40.420Z,75114.67
2018-05-17T06:40:12.258Z,75127.83
2018-05-17T06:42:43.289Z,75135.92
2018-05-17T06:45:16.326Z,75125.80
2018-05-17T06:47:47.280Z,75185.52
2018-05-17T06:50:18.377Z,75157.17
2018-05-17T06:52:49.889Z,75174.38
2018-05-17T06:55:21.151Z,75125.80
2018-05-17T06:57:52.166Z,75118.72
2018-05-17T07:00:25.879Z,75037.75
2018-05-17T07:02:56.991Z,75031.68
2018-05-17T07:05:28.217Z,74976.02
2018-05-17T07:07:59.678Z,75053.94
2018-05-17T07:10:30.663Z,75026.62
2018-05-17T07:13:02.807Z,75031.68
2018-05-17T07:15:34.495Z,75054.95
2018-05-17T07:18:06.410Z,75035.73
2018-05-17T07:20:37.885Z,75010.42
2018-05-17T07:23:09.175Z,75026.62
2018-05-17T07:25:40.920Z,75014.47
2018-05-17T07:28:11.957Z,74993.22
2018-05-17T07:30:42.916Z,74994.23
2018-05-17T07:33:14.284Z,74992.20
2018-05-17T07:35:45.279Z,75022.57
2018-05-17T07:38:16.910Z,75024.59
2018-05-17T07:40:48.180Z,75022.57
2018-05-17T07:43:19.271Z,74977.03
2018-05-17T07:45:50.247Z,74969.94
2018-05-17T07:48:22.227Z,74998.28
2018-05-17T07:50:53.231Z,75000.30
2018-05-17T07:53:24.244Z,75030.67
2018-05-17T07:55:55.848Z,74996.26
2018-05-17T07:58:27.551Z,75035.73
2018-05-17T08:00:58.544Z,75011.44
2018-05-17T08:03:29.930Z,74953.75
2018-05-17T08:06:01.524Z,74933.52
2018-05-17T08:08:33.140Z,74884.94
2018-05-17T08:11:04.650Z,74930.47
2018-05-17T08:13:36.272Z,74860.64
2018-05-17T08:16:07.791Z,74834.33
2018-05-17T08:18:38.947Z,74892.02
2018-05-17T08:21:10.302Z,74804.98
2018-05-17T08:23:41.915Z,74809.03
2018-05-17T08:26:13.516Z,74875.83
2018-05-17T08:28:45.588Z,74904.16
2018-05-17T08:31:16.708Z,74902.14
2018-05-17T08:33:48.367Z,74878.86
2018-05-17T08:36:20.221Z,74862.67
2018-05-17T08:38:51.498Z,74938.57
2018-05-17T08:41:23.450Z,74857.61
2018-05-17T08:43:55.427Z,74935.53
2018-05-17T08:46:27.004Z,74801.95
2018-05-17T08:48:58.035Z,74760.46
2018-05-17T08:51:29.519Z,74796.89
2018-05-17T08:54:00.667Z,74844.45
2018-05-17T08:56:31.648Z,74835.34
2018-05-17T08:59:03.552Z,74799.92
2018-05-17T09:01:34.747Z,74747.30
2018-05-17T09:04:06.258Z,74746.29
2018-05-17T09:06:37.689Z,74795.88
2018-05-17T09:09:09.182Z,74727.06
2018-05-17T09:11:41.021Z,74659.27
2018-05-17T09:14:12.375Z,74663.31
2018-05-17T09:16:43.665Z,74699.74
2018-05-17T09:19:14.927Z,74639.02
2018-05-17T09:21:46.582Z,74652.18
2018-05-17T09:24:18.033Z,74658.25
2018-05-17T09:26:49.423Z,74691.64
2018-05-17T09:29:20.493Z,74642.06
2018-05-17T09:31:51.807Z,74821.17
2018-05-17T09:34:23.365Z,74828.27
2018-05-17T09:36:54.388Z,74829.27
2018-05-17T09:39:25.716Z,74767.55
2018-05-17T09:41:56.751Z,74842.43
2018-05-17T09:44:28.513Z,74818.14
2018-05-17T09:47:00.387Z,74763.50
2018-05-17T09:49:31.710Z,74778.67
2018-05-17T09:52:03.380Z,74834.33
2018-05-17T09:54:34.555Z,74687.59
2018-05-17T09:57:05.994Z,74643.08
2018-05-17T09:59:39.259Z,74716.94
2018-05-17T10:02:10.558Z,74782.72
2018-05-17T10:04:41.879Z,74777.66
2018-05-17T10:07:12.963Z,74708.84
2018-05-17T10:09:43.977Z,74629.91
2018-05-17T10:12:15.238Z,74538.84
2018-05-17T10:14:46.197Z,74553.01
2018-05-17T10:17:17.323Z,74711.89
2018-05-17T10:19:48.678Z,74712.90
2018-05-17T10:22:19.683Z,74707.84
2018-05-17T10:24:50.767Z,74585.39
2018-05-17T10:27:22.104Z,74521.64
2018-05-17T10:29:53.173Z,74595.52
2018-05-17T10:32:24.525Z,74553.01
2018-05-17T10:34:55.531Z,74620.81
2018-05-17T10:37:26.590Z,74554.02
2018-05-17T10:39:57.875Z,74548.97
2018-05-17T10:42:29.015Z,74481.16
2018-05-17T10:45:00.083Z,74450.81
2018-05-17T10:47:31.411Z,74653.19
2018-05-17T10:50:02.456Z,74643.08
2018-05-17T10:52:33.498Z,74603.61
2018-05-17T10:55:05.581Z,74479.14
2018-05-17T10:57:36.619Z,74537.83
2018-05-17T11:00:08.358Z,74513.55
2018-05-17T11:02:39.516Z,74497.36
2018-05-17T11:05:11.259Z,74575.27
2018-05-17T11:07:42.943Z,74669.38
2018-05-17T11:10:14.251Z,74694.68
2018-05-17T11:12:45.220Z,74692.66
2018-05-17T11:15:16.755Z,74638.02
2018-05-17T11:17:48.063Z,74576.28
2018-05-17T11:20:19.787Z,74672.42
2018-05-17T11:22:50.892Z,74561.11
2018-05-17T11:25:22.070Z,74550.98
2018-05-17T11:27:53.679Z,74643.08
2018-05-17T11:30:27.905Z,74595.52
2018-05-17T11:32:59.153Z,74602.59
2018-05-17T11:35:30.745Z,74574.27
2018-05-17T11:38:02.200Z,74554.02
2018-05-17T11:40:34.763Z,74530.75
2018-05-17T11:43:06.375Z,74527.72
2018-05-17T11:45:37.405Z,74601.58
2018-05-17T11:48:09.159Z,74685.58
2018-05-17T11:50:40.138Z,74716.94
2018-05-17T11:53:11.216Z,74648.13
2018-05-17T11:55:42.493Z,74588.42
2018-05-17T11:58:13.576Z,74566.17
2018-05-17T12:00:44.574Z,74662.30
2018-05-17T12:03:15.802Z,74664.33
2018-05-17T12:05:46.978Z,74706.83
2018-05-17T12:08:19.130Z,74715.93
2018-05-17T12:10:50.415Z,74715.93
2018-05-17T12:13:21.446Z,74605.63
2018-05-17T12:15:52.488Z,74542.89
2018-05-17T12:18:23.818Z,74571.22
2018-05-17T12:20:54.811Z,74645.09
2018-05-17T12:23:26.288Z,74585.39
2018-05-17T12:25:57.590Z,74764.51
2018-05-17T12:28:28.618Z,74717.95
2018-05-17T12:30:59.855Z,74719.98
2018-05-17T12:33:30.803Z,74624.86
2018-05-17T12:36:01.767Z,74702.78
2018-05-17T12:38:33.233Z,74599.56
2018-05-17T12:41:04.234Z,74622.84
2018-05-17T12:43:36.058Z,74622.84
2018-05-17T12:46:08.158Z,74630.92
2018-05-17T12:48:40.058Z,74650.16
2018-05-17T12:51:11.183Z,74725.04
2018-05-17T12:53:42.608Z,74581.34
2018-05-17T12:56:13.702Z,74541.88
2018-05-17T12:58:44.718Z,74624.86
2018-05-17T13:01:16.295Z,74611.70
2018-05-17T13:03:47.285Z,74685.58
2018-05-17T13:06:18.289Z,74662.30
2018-05-17T13:08:49.750Z,74689.63
2018-05-17T13:11:20.778Z,74669.38
2018-05-17T13:13:51.910Z,74555.03
2018-05-17T13:16:23.450Z,74516.58
2018-05-17T13:18:54.478Z,74673.43
2018-05-17T13:21:25.469Z,74674.44
2018-05-17T13:23:56.823Z,74595.52
2018-05-17T13:26:27.868Z,74648.13
2018-05-17T13:28:58.854Z,74572.23
2018-05-17T13:31:30.136Z,74702.78
2018-05-17T13:34:01.196Z,74602.59
2018-05-17T13:36:32.625Z,74616.77
2018-05-17T13:39:04.043Z,74689.63
2018-05-17T13:41:35.118Z,74668.38
2018-05-17T13:44:06.497Z,74629.91
2018-05-17T13:46:37.552Z,74562.12
2018-05-17T13:49:08.756Z,74620.81
2018-05-17T13:51:40.284Z,74618.78
2018-05-17T13:54:11.315Z,74638.02
2018-05-17T13:56:42.343Z,74590.45
2018-05-17T13:59:13.728Z,74611.70
2018-05-17T14:01:44.819Z,74584.38
2018-05-17T14:04:16.061Z,74530.75
2018-05-17T14:06:47.027Z,74498.37
2018-05-17T14:09:18.051Z,74591.46
2018-05-17T14:11:49.515Z,74621.82
2018-05-17T14:14:20.484Z,74524.67
2018-05-17T14:16:51.459Z,74503.42
2018-05-17T14:19:22.791Z,74540.87
2018-05-17T14:21:53.889Z,74538.84
2018-05-17T14:24:25.504Z,74532.77
2018-05-17T14:26:56.862Z,74586.41
2018-05-17T14:29:27.923Z,74559.08
2018-05-17T14:31:59.286Z,74529.73
2018-05-17T14:34:30.267Z,74445.75
2018-05-17T14:37:01.320Z,74426.52
2018-05-17T14:39:33.157Z,74444.73
2018-05-17T14:42:04.197Z,74503.42
2018-05-17T14:44:35.264Z,74501.41
2018-05-17T14:47:06.623Z,74447.77
2018-05-17T14:49:37.659Z,74426.52
2018-05-17T14:52:08.673Z,74418.42
2018-05-17T14:54:39.976Z,74529.73
2018-05-17T14:57:11.131Z,74541.88
2018-05-17T14:59:42.419Z,74581.34
2018-05-17T15:02:13.422Z,74587.41
2018-05-17T15:04:44.530Z,74494.32
2018-05-17T15:07:15.809Z,74430.57
2018-05-17T15:09:46.976Z,74412.36
2018-05-17T15:12:18.127Z,74411.34
2018-05-17T15:14:49.899Z,74403.25
2018-05-17T15:17:20.895Z,74422.48
2018-05-17T15:19:51.952Z,74414.38
2018-05-17T15:22:22.931Z,74423.48
2018-05-17T15:24:54.245Z,74463.97
2018-05-17T15:27:25.222Z,74397.18
2018-05-17T15:29:56.203Z,74442.72
2018-05-17T15:32:27.523Z,74482.17
2018-05-17T15:34:58.566Z,74464.97
2018-05-17T15:37:29.596Z,74539.86
2018-05-17T15:40:00.681Z,74470.03
2018-05-17T15:42:33.076Z,74517.59
2018-05-17T15:45:04.183Z,74454.86
2018-05-17T15:47:35.311Z,74498.37
2018-05-17T15:50:06.893Z,74549.98
2018-05-17T15:52:37.908Z,74535.81
2018-05-17T15:55:08.947Z,74495.33
2018-05-17T15:57:42.829Z,74524.67
2018-05-17T16:00:14.289Z,74490.27
2018-05-17T16:02:45.617Z,74474.08
2018-05-17T16:05:16.911Z,74493.31
2018-05-17T16:07:47.852Z,74516.58
2018-05-17T16:10:19.098Z,74467.00
2018-05-17T16:12:50.135Z,74438.67
2018-05-17T16:15:21.464Z,74511.52
2018-05-17T16:17:53.500Z,74443.73
2018-05-17T16:20:25.463Z,74494.32
2018-05-17T16:22:56.723Z,74526.70
2018-05-17T16:25:27.827Z,74543.91
2018-05-17T16:27:58.892Z,74547.95
2018-05-17T16:30:30.155Z,74521.64
2018-05-17T16:33:01.232Z,74573.25
2018-05-17T16:35:32.748Z,74552.00
2018-05-17T16:38:04.018Z,74561.11
2018-05-17T16:40:35.093Z,74539.86
2018-05-17T16:43:06.475Z,74515.57
2018-05-17T16:45:37.747Z,74556.05
2018-05-17T16:48:09.067Z,74541.88
2018-05-17T16:50:40.214Z,74488.25
2018-05-17T16:53:12.228Z,74532.77
2018-05-17T16:55:43.806Z,74596.52
2018-05-17T16:58:14.803Z,74548.97
2018-05-17T17:00:46.437Z,74593.48
2018-05-17T17:03:17.789Z,74538.84
2018-05-17T17:05:49.020Z,74576.28
2018-05-17T17:08:20.511Z,74549.98
2018-05-17T17:10:51.498Z,74544.92
2018-05-17T17:13:23.105Z,74541.88
2018-05-17T17:15:54.568Z,74555.03
2018-05-17T17:18:25.763Z,74558.07
2018-05-17T17:20:56.784Z,74557.06
2018-05-17T17:23:28.067Z,74521.64
2018-05-17T17:25:59.039Z,74490.27
2018-05-17T17:28:30.059Z,74524.67
2018-05-17T17:31:01.427Z,74521.64
2018-05-17T17:33:32.456Z,74583.37
2018-05-17T17:36:03.440Z,74560.09
2018-05-17T17:38:34.739Z,74583.37
2018-05-17T17:41:05.826Z,74617.77
2018-05-17T17:43:38.159Z,74628.91
2018-05-17T17:46:09.479Z,74612.72
2018-05-17T17:48:40.702Z,74645.09
2018-05-17T17:51:11.695Z,74600.57
2018-05-17T17:53:44.451Z,74555.03
2018-05-17T17:56:15.926Z,74606.64
2018-05-17T17:58:47.337Z,74579.32
2018-05-17T18:01:22.544Z,74595.52
2018-05-17T18:03:53.715Z,74565.16
2018-05-17T18:06:25.484Z,74557.06
2018-05-17T18:08:59.505Z,74605.63
2018-05-17T18:11:31.055Z,74655.22
2018-05-17T18:14:02.423Z,74634.98
2018-05-17T18:16:35.764Z,74632.95
2018-05-17T18:19:07.213Z,74614.73
2018-05-17T18:21:38.588Z,74600.57
2018-05-17T18:24:09.693Z,74627.89
2018-05-17T18:26:41.291Z,74650.16
2018-05-17T18:29:12.675Z,74713.91
2018-05-17T18:31:44.228Z,74748.31
2018-05-17T18:34:15.619Z,74751.35
2018-05-17T18:36:46.710Z,74769.56
2018-05-17T18:39:18.228Z,74760.46
2018-05-17T18:41:49.406Z,74787.78
2018-05-17T18:44:20.375Z,74791.83
2018-05-17T18:46:51.656Z,74784.75
2018-05-17T18:49:22.687Z,74798.91
2018-05-17T18:51:53.763Z,74783.73
2018-05-17T18:54:26.118Z,74791.83
2018-05-17T18:56:57.311Z,74785.76
2018-05-17T18:59:33.253Z,74756.41
2018-05-17T19:02:04.590Z,74794.86
2018-05-17T19:04:35.623Z,74801.95
2018-05-17T19:07:06.668Z,74812.07
2018-05-17T19:09:37.956Z,74832.31
2018-05-17T19:12:13.135Z,74860.64
2018-05-17T19:14:45.826Z,74856.59
2018-05-17T19:17:16.862Z,74807.02
2018-05-17T19:19:47.970Z,74877.85
2018-05-17T19:22:19.342Z,74891.00
2018-05-17T19:24:50.367Z,74880.89
2018-05-17T19:27:22.095Z,74892.02
2018-05-17T19:29:53.407Z,74926.42
2018-05-17T19:32:24.406Z,74933.52
2018-05-17T19:34:59.639Z,74953.75
2018-05-17T19:37:30.978Z,74894.05
2018-05-17T19:40:02.032Z,74892.02
2018-05-17T19:42:33.062Z,74928.45
2018-05-17T19:45:04.450Z,74904.16
2018-05-17T19:47:35.909Z,74912.26
2018-05-17T19:50:07.546Z,74953.75
2018-05-17T19:52:39.254Z,74928.45
2018-05-17T19:55:11.192Z,74918.33
2018-05-17T19:57:42.233Z,74933.52
2018-05-17T20:00:13.683Z,74943.63
2018-05-17T20:02:44.704Z,74923.39
2018-05-17T20:05:16.150Z,74959.82
2018-05-17T20:07:47.423Z,74949.70
2018-05-17T20:10:18.754Z,74962.86
2018-05-17T20:12:50.079Z,74983.10
2018-05-17T20:17:56.820Z,75038.77
2018-05-17T20:20:28.463Z,75007.39
2018-05-17T20:22:59.816Z,75026.62
2018-05-17T20:25:30.891Z,75002.33
2018-05-17T20:28:01.986Z,75009.41
2018-05-17T20:30:33.582Z,74991.20
2018-05-17T20:33:04.563Z,74998.28
2018-05-17T20:35:35.638Z,75044.84
2018-05-17T20:38:07.095Z,75011.44
2018-05-17T20:40:38.143Z,75055.97
2018-05-17T20:43:09.181Z,75056.98
2018-05-17T20:45:42.193Z,75125.80
2018-05-17T20:48:13.422Z,75125.80
2018-05-17T20:50:44.552Z,75133.89
2018-05-17T20:53:15.538Z,75099.48
2018-05-17T20:55:46.790Z,75077.22
2018-05-17T20:58:17.802Z,75107.58
2018-05-17T21:00:48.797Z,75095.44
2018-05-17T21:03:20.064Z,75153.13
2018-05-17T21:05:51.138Z,75188.55
2018-05-17T21:08:22.975Z,75139.97
2018-05-17T21:10:53.969Z,75233.08
2018-05-17T21:13:27.582Z,75264.45
2018-05-17T21:15:58.934Z,75262.44
2018-05-17T21:18:30.771Z,75204.75
2018-05-17T21:21:02.436Z,75164.27
2018-05-17T21:23:34.843Z,75151.10
2018-05-17T21:26:05.831Z,75152.11
2018-05-17T21:28:36.816Z,75200.70
2018-05-17T21:31:08.123Z,75213.85
2018-05-17T21:33:39.808Z,75219.92
2018-05-17T21:36:11.165Z,75226.00
2018-05-17T21:38:43.000Z,75183.49
2018-05-17T21:41:14.523Z,75243.20
2018-05-17T21:43:46.566Z,75243.20
2018-05-17T21:46:17.571Z,75241.18
2018-05-17T21:48:48.868Z,75247.25
2018-05-17T21:51:20.183Z,75298.88
2018-05-17T21:53:51.939Z,75301.91
2018-05-17T21:56:23.296Z,75312.03
2018-05-17T21:58:55.129Z,75310.00
2018-05-17T22:01:26.283Z,75306.97
2018-05-17T22:03:58.876Z,75289.77
2018-05-17T22:06:29.856Z,75343.41
2018-05-17T22:09:00.871Z,75344.42
2018-05-17T22:11:32.219Z,75324.17
2018-05-17T22:14:03.293Z,75301.91
2018-05-17T22:16:35.075Z,75308.99
2018-05-17T22:19:06.375Z,75261.42
2018-05-17T22:21:37.330Z,75303.93
2018-05-17T22:24:08.290Z,75314.05
2018-05-17T22:26:40.000Z,75291.78
2018-05-17T22:29:11.542Z,75285.71
2018-05-17T22:31:43.280Z,75247.25
2018-05-17T22:34:14.316Z,75278.63
2018-05-17T22:36:45.701Z,75269.52
2018-05-17T22:39:17.060Z,75274.58
2018-05-17T22:41:48.035Z,75299.88
2018-05-17T22:44:19.051Z,75286.72
2018-05-17T22:46:50.964Z,75310.00
2018-05-17T22:49:22.378Z,75306.97
2018-05-17T22:51:54.961Z,75326.20
2018-05-17T22:54:26.040Z,75308.99
2018-05-17T22:57:17.120Z,75312.03
2018-05-17T22:59:50.825Z,75363.65
2018-05-17T23:02:22.749Z,75336.32
2018-05-17T23:04:54.719Z,75341.38
2018-05-17T23:07:27.434Z,75335.31
2018-05-17T23:09:58.520Z,75364.66
2018-05-17T23:12:30.098Z,75348.47
2018-05-17T23:15:01.122Z,75402.11
2018-05-17T23:17:32.632Z,75380.86
2018-05-17T23:20:04.424Z,75390.98
2018-05-17T23:22:39.603Z,75386.93
2018-05-17T23:25:12.700Z,75414.25
2018-05-17T23:27:44.917Z,75404.13
2018-05-17T23:30:16.681Z,75362.64
2018-05-17T23:32:48.492Z,75376.81
2018-05-17T23:35:20.284Z,75398.06
2018-05-17T23:37:53.285Z,75348.47
2018-05-17T23:40:33.217Z,75378.83
2018-05-17T23:43:04.620Z,75395.02
2018-05-17T23:45:36.531Z,75423.36
2018-05-17T23:48:08.530Z,75459.80
2018-05-17T23:50:40.181Z,75469.92
2018-05-17T23:53:11.576Z,75460.81
2018-05-17T23:55:43.580Z,75440.57
2018-05-17T23:58:15.200Z,75463.85
